TimeMST,TemperatureF,Dew PointF,Humidity,Sea Level PressureIn,VisibilityMPH,Wind Direction,Wind SpeedMPH,Gust SpeedMPH,PrecipitationIn,Events,Conditions,WindDirDegrees,DateUTC
12:53 AM,24.1,21.0,88,30.13,10.0,SSE,8.1,-,N/A,,Overcast,150,2014-01-15 07:53:00
1:53 AM,25.0,21.0,85,30.09,10.0,SSE,4.6,-,N/A,,Overcast,150,2014-01-15 08:53:00
2:53 AM,26.1,21.9,84,30.05,10.0,South,5.8,-,N/A,,Overcast,190,2014-01-15 09:53:00
3:53 AM,28.0,23.0,81,30.00,10.0,SW,4.6,-,N/A,,Overcast,220,2014-01-15 10:53:00
4:53 AM,30.9,25.0,79,29.94,10.0,WSW,11.5,-,N/A,,Overcast,240,2014-01-15 11:53:00
5:53 AM,34.0,27.0,75,29.89,10.0,West,19.6,-,N/A,,Overcast,270,2014-01-15 12:53:00
6:53 AM,35.1,28.0,76,29.88,10.0,West,18.4,-,N/A,,Overcast,270,2014-01-15 13:53:00
7:53 AM,36.0,28.0,73,29.85,10.0,West,17.3,-,N/A,,Overcast,280,2014-01-15 14:53:00
8:53 AM,37.0,28.0,70,29.83,10.0,West,21.9,-,N/A,,Mostly Cloudy,270,2014-01-15 15:53:00
9:53 AM,37.0,28.0,70,29.82,10.0,West,17.3,-,N/A,,Partly Cloudy,280,2014-01-15 16:53:00
10:53 AM,37.9,28.9,70,29.82,10.0,West,23.0,31.1,N/A,,Overcast,280,2014-01-15 17:53:00
11:53 AM,39.0,28.9,67,29.78,10.0,West,23.0,29.9,N/A,,Clear,280,2014-01-15 18:53:00
12:53 PM,39.0,28.9,67,29.77,10.0,West,20.7,-,N/A,,Clear,280,2014-01-15 19:53:00
1:53 PM,39.0,28.9,67,29.76,10.0,West,23.0,32.2,N/A,,Clear,280,2014-01-15 20:53:00
2:53 PM,37.9,28.9,70,29.78,10.0,West,24.2,-,N/A,,Clear,280,2014-01-15 21:53:00
3:53 PM,39.0,28.0,65,29.79,10.0,WNW,28.8,34.5,N/A,,Clear,290,2014-01-15 22:53:00
4:53 PM,37.0,28.9,73,29.81,10.0,West,19.6,-,N/A,,Clear,280,2014-01-15 23:53:00
5:53 PM,37.9,28.0,68,29.80,10.0,WNW,27.6,41.4,N/A,,Overcast,300,2014-01-16 00:53:00
6:53 PM,36.0,26.1,67,29.79,10.0,WNW,28.8,38.0,N/A,,Scattered Clouds,300,2014-01-16 01:53:00
7:53 PM,35.1,24.1,64,29.81,10.0,WNW,29.9,41.4,N/A,,Clear,300,2014-01-16 02:53:00
8:53 PM,34.0,24.1,67,29.81,10.0,WNW,35.7,46.0,0.00,,Clear,300,2014-01-16 03:53:00
9:53 PM,32.0,23.0,69,29.83,10.0,WNW,34.5,47.2,N/A,,Clear,300,2014-01-16 04:53:00
10:53 PM,30.9,23.0,72,29.86,10.0,WNW,34.5,47.2,N/A,,Clear,300,2014-01-16 05:53:00
11:53 PM,30.9,21.9,69,29.86,10.0,WNW,39.1,48.3,N/A,,Scattered Clouds,300,2014-01-16 06:53:00